Time;durP1;ratioP1;P1;durP2;ratioP2;P2;SDS_P1;SDS_P2;PMS_P1;PMS_P2;Temp;Humidity;BMP_temperature;BMP_pressure;BME280_temperature;BME280_humidity;BME280_pressure;Samples;Min_cycle;Max_cycle;Signal;HPM_P1;HPM_P2
2023/09/23 00:01:43;;;;;;;2.30;1.75;;;15.90;99.90;;;;;;4982033;28;20277;-74
2023/09/23 00:04:09;;;;;;;4.10;1.75;;;15.90;99.90;;;;;;4977083;28;20298;-73
2023/09/23 00:06:34;;;;;;;3.88;1.77;;;15.90;99.90;;;;;;4974874;28;20202;-74
2023/09/23 00:09:01;;;;;;;3.13;1.52;;;15.90;99.90;;;;;;4979624;28;20186;-74
2023/09/23 00:11:27;;;;;;;3.78;1.88;;;15.80;99.90;;;;;;4967178;28;20707;-74
2023/09/23 00:13:52;;;;;;;3.67;1.60;;;15.80;99.90;;;;;;4979685;28;20225;-74
2023/09/23 00:16:19;;;;;;;2.45;1.33;;;15.90;99.90;;;;;;4980056;28;20199;-74
2023/09/23 00:18:44;;;;;;;2.50;1.88;;;15.90;99.90;;;;;;4979609;28;20174;-74
2023/09/23 00:21:12;;;;;;;2.42;1.60;;;15.90;99.90;;;;;;4980845;28;20301;-74
2023/09/23 00:23:38;;;;;;;2.25;1.98;;;15.90;99.90;;;;;;4974454;28;20214;-74
2023/09/23 00:26:04;;;;;;;3.33;1.70;;;15.90;99.90;;;;;;4977009;28;20259;-74
2023/09/23 00:28:32;;;;;;;3.55;1.40;;;15.90;99.90;;;;;;4978146;28;20293;-74
2023/09/23 00:31:05;;;;;;;2.88;1.40;;;15.90;99.90;;;;;;4976183;28;20222;-72
2023/09/23 00:33:32;;;;;;;1.35;1.25;;;15.90;99.90;;;;;;4976335;28;20219;-74
2023/09/23 00:35:59;;;;;;;2.67;1.75;;;15.80;99.90;;;;;;4981030;28;20946;-72
2023/09/23 00:38:24;;;;;;;3.90;1.60;;;15.90;99.90;;;;;;4982237;28;20214;-74
2023/09/23 00:40:52;;;;;;;1.92;1.40;;;15.90;99.90;;;;;;4982267;28;20296;-74
2023/09/23 00:43:18;;;;;;;4.20;1.90;;;15.80;99.90;;;;;;4982533;28;20709;-74
2023/09/23 00:45:48;;;;;;;2.08;1.40;;;15.80;99.90;;;;;;4984958;28;20189;-74
2023/09/23 00:48:18;;;;;;;4.30;1.80;;;15.80;99.90;;;;;;4983193;28;20201;-74
2023/09/23 00:50:46;;;;;;;3.17;1.48;;;15.80;99.90;;;;;;4982921;28;20296;-74
2023/09/23 00:53:13;;;;;;;3.35;1.02;;;15.80;99.90;;;;;;4981808;28;20241;-74
2023/09/23 00:55:43;;;;;;;3.25;1.52;;;15.80;99.90;;;;;;4984678;28;20198;-74
2023/09/23 00:58:14;;;;;;;1.45;1.20;;;15.80;99.90;;;;;;4982464;28;20217;-74
2023/09/23 01:00:43;;;;;;;2.00;1.50;;;15.80;99.90;;;;;;4979980;28;20174;-74
2023/09/23 01:03:10;;;;;;;2.28;1.35;;;15.80;99.90;;;;;;4983796;28;20204;-74
2023/09/23 01:05:35;;;;;;;1.77;1.27;;;15.80;99.90;;;;;;4983284;28;20210;-74
2023/09/23 01:08:06;;;;;;;2.85;1.50;;;15.80;99.90;;;;;;4980663;28;20566;-74
2023/09/23 01:10:31;;;;;;;2.67;1.30;;;15.80;99.90;;;;;;4982932;28;20669;-74
2023/09/23 01:12:57;;;;;;;2.03;1.35;;;15.80;99.90;;;;;;4981084;28;20233;-74
2023/09/23 01:15:31;;;;;;;1.40;1.15;;;15.80;99.90;;;;;;4978956;28;20203;-73
2023/09/23 01:17:57;;;;;;;1.98;1.30;;;15.80;99.90;;;;;;4979960;28;20233;-74
2023/09/23 01:20:25;;;;;;;1.52;1.35;;;15.80;99.90;;;;;;4982588;28;20272;-75
2023/09/23 01:22:54;;;;;;;6.40;1.30;;;15.70;99.90;;;;;;4981706;28;20205;-74
2023/09/23 01:25:20;;;;;;;1.95;1.45;;;15.60;99.90;;;;;;4981011;28;20223;-73
2023/09/23 01:27:46;;;;;;;1.70;1.20;;;15.70;99.90;;;;;;4981259;28;20237;-74
2023/09/23 01:30:12;;;;;;;2.05;1.52;;;15.70;99.90;;;;;;4982294;28;20221;-74
2023/09/23 01:32:50;;;;;;;1.30;1.20;;;15.70;99.90;;;;;;4983803;28;20209;-74
2023/09/23 01:35:16;;;;;;;1.58;1.48;;;15.70;99.90;;;;;;4981195;28;20242;-75
2023/09/23 01:37:44;;;;;;;1.67;1.10;;;15.60;99.90;;;;;;4980574;28;20240;-75
2023/09/23 01:40:16;;;;;;;3.03;1.60;;;15.60;99.90;;;;;;4981875;28;20279;-74
2023/09/23 01:42:42;;;;;;;1.70;1.20;;;15.60;99.90;;;;;;4977238;28;20752;-74
2023/09/23 01:45:10;;;;;;;2.13;1.38;;;15.60;99.90;;;;;;4983551;28;20256;-75
2023/09/23 01:47:37;;;;;;;2.90;1.40;;;15.60;99.90;;;;;;4978817;28;20215;-74
2023/09/23 01:50:03;;;;;;;2.85;1.77;;;15.70;99.90;;;;;;4980539;28;20297;-75
2023/09/23 01:52:29;;;;;;;3.63;1.25;;;15.60;99.90;;;;;;4979750;28;20206;-75
2023/09/23 01:54:55;;;;;;;1.83;1.48;;;15.70;99.90;;;;;;4981703;28;20229;-75
2023/09/23 01:57:20;;;;;;;2.53;1.25;;;15.60;99.90;;;;;;4979406;28;20240;-75
2023/09/23 01:59:46;;;;;;;2.00;1.23;;;15.70;99.90;;;;;;4983701;28;20288;-74
2023/09/23 02:02:12;;;;;;;3.03;1.30;;;15.60;99.90;;;;;;4982262;28;20402;-75
2023/09/23 02:04:41;;;;;;;4.25;1.42;;;15.60;99.90;;;;;;4984219;28;20209;-74
2023/09/23 02:07:10;;;;;;;1.55;1.30;;;15.60;99.90;;;;;;4980413;28;20222;-73
2023/09/23 02:09:37;;;;;;;3.75;1.20;;;15.50;99.90;;;;;;4979831;28;20181;-75
2023/09/23 02:12:03;;;;;;;2.05;1.20;;;15.60;99.90;;;;;;4980932;28;20527;-74
2023/09/23 02:14:30;;;;;;;2.75;1.40;;;15.50;99.90;;;;;;4980510;28;20727;-75
2023/09/23 02:16:56;;;;;;;2.20;1.25;;;15.50;99.90;;;;;;4972271;28;20209;-75
2023/09/23 02:19:21;;;;;;;1.88;1.40;;;15.50;99.90;;;;;;4979937;28;20210;-73
2023/09/23 02:21:51;;;;;;;2.10;1.00;;;15.50;99.90;;;;;;4982265;28;20301;-74
2023/09/23 02:24:18;;;;;;;2.05;1.23;;;15.50;99.90;;;;;;4980163;28;20225;-75
2023/09/23 02:26:48;;;;;;;1.20;1.08;;;15.50;99.90;;;;;;4982327;28;20213;-74
2023/09/23 02:29:16;;;;;;;2.60;1.25;;;15.50;99.90;;;;;;4980973;28;20233;-74
2023/09/23 02:31:46;;;;;;;5.50;1.95;;;15.50;99.90;;;;;;4982286;28;20696;-75
2023/09/23 02:34:16;;;;;;;2.92;1.30;;;15.50;99.90;;;;;;4980218;28;20243;-74
2023/09/23 02:36:50;;;;;;;1.52;1.25;;;15.40;99.90;;;;;;4982921;28;20652;-75
2023/09/23 02:39:19;;;;;;;1.30;1.10;;;15.30;99.90;;;;;;4979169;28;20182;-74
2023/09/23 02:41:49;;;;;;;1.38;1.17;;;15.30;99.90;;;;;;4981601;28;20280;-74
2023/09/23 02:44:20;;;;;;;5.15;1.23;;;15.30;99.90;;;;;;4961936;28;20282;-75
2023/09/23 02:46:46;;;;;;;1.70;1.15;;;15.30;99.90;;;;;;4978818;28;20207;-74
2023/09/23 02:49:13;;;;;;;3.53;1.10;;;15.20;99.90;;;;;;4982879;28;20265;-75
2023/09/23 02:51:39;;;;;;;2.75;1.30;;;15.10;99.90;;;;;;4979262;28;20740;-74
2023/09/23 02:54:05;;;;;;;1.77;1.33;;;15.10;99.90;;;;;;4983693;28;20288;-74
2023/09/23 02:56:34;;;;;;;6.00;1.20;;;15.10;99.90;;;;;;4979583;28;20727;-74
2023/09/23 02:59:00;;;;;;;1.38;1.10;;;15.00;99.90;;;;;;4983153;28;20209;-75
2023/09/23 03:01:27;;;;;;;3.58;1.15;;;15.00;99.90;;;;;;4977598;28;20234;-74
2023/09/23 03:03:54;;;;;;;2.30;1.52;;;14.90;99.90;;;;;;4982641;28;20218;-74
2023/09/23 03:06:21;;;;;;;1.65;1.33;;;14.90;99.90;;;;;;4980317;28;20166;-74
2023/09/23 03:08:53;;;;;;;1.98;1.27;;;15.00;99.90;;;;;;4982376;28;20209;-74
2023/09/23 03:11:19;;;;;;;1.77;1.00;;;15.00;99.90;;;;;;4979212;28;20221;-72
2023/09/23 03:13:45;;;;;;;1.88;1.23;;;15.00;99.90;;;;;;4981146;28;20218;-74
2023/09/23 03:16:14;;;;;;;1.63;1.17;;;15.00;99.90;;;;;;4981599;28;20217;-74
2023/09/23 03:19:24;;;;;;;1.25;1.08;;;15.00;99.90;;;;;;4981744;28;20173;-74
2023/09/23 03:21:28;;;;;;;1.10;0.98;;;15.00;99.90;;;;;;4977579;28;20186;-74
2023/09/23 03:23:54;;;;;;;1.33;0.80;;;15.00;99.90;;;;;;4980180;28;20224;-74
2023/09/23 03:26:20;;;;;;;1.20;0.90;;;15.00;99.90;;;;;;4979844;28;20606;-75
2023/09/23 03:28:46;;;;;;;1.33;1.23;;;15.10;99.90;;;;;;4978547;28;20246;-74
2023/09/23 03:31:14;;;;;;;2.80;1.35;;;15.00;99.90;;;;;;4982290;28;20815;-74
2023/09/23 03:33:42;;;;;;;1.98;1.05;;;15.00;99.90;;;;;;4975854;28;20264;-75
2023/09/23 03:36:14;;;;;;;1.77;1.30;;;15.10;99.90;;;;;;4983198;28;20184;-74
2023/09/23 03:38:40;;;;;;;2.00;1.10;;;15.10;99.90;;;;;;4977326;28;20206;-75
2023/09/23 03:41:07;;;;;;;1.55;0.90;;;15.10;99.90;;;;;;4978693;28;20317;-74
2023/09/23 03:43:33;;;;;;;1.08;0.98;;;15.10;99.90;;;;;;4980023;28;20222;-74
2023/09/23 03:45:59;;;;;;;1.63;0.90;;;15.10;99.90;;;;;;4981123;28;20292;-74
2023/09/23 03:48:25;;;;;;;2.05;1.10;;;15.00;99.90;;;;;;4977976;28;20285;-74
2023/09/23 03:50:52;;;;;;;4.10;1.10;;;15.00;99.90;;;;;;4981090;28;20205;-74
2023/09/23 03:53:21;;;;;;;2.22;1.00;;;15.00;99.90;;;;;;4977481;28;20305;-74
2023/09/23 03:55:49;;;;;;;2.45;1.40;;;15.00;99.90;;;;;;4981765;28;20440;-75
2023/09/23 03:58:17;;;;;;;2.20;1.15;;;15.00;99.90;;;;;;4977977;28;20716;-74
2023/09/23 04:00:44;;;;;;;3.03;0.93;;;15.00;99.90;;;;;;4980535;28;20232;-74
2023/09/23 04:03:10;;;;;;;1.35;0.98;;;15.00;99.90;;;;;;4978236;28;20318;-75
2023/09/23 04:05:36;;;;;;;2.05;1.10;;;14.90;99.90;;;;;;4978865;28;20218;-74
2023/09/23 04:08:02;;;;;;;2.55;1.10;;;15.00;99.90;;;;;;4981140;28;20290;-75
2023/09/23 04:10:28;;;;;;;2.75;0.77;;;15.00;99.90;;;;;;4979990;28;20264;-74
2023/09/23 04:12:54;;;;;;;1.58;0.80;;;15.00;99.90;;;;;;4983974;28;20218;-75
2023/09/23 04:15:26;;;;;;;1.98;1.30;;;15.00;99.90;;;;;;4983536;28;20214;-75
2023/09/23 04:17:52;;;;;;;2.00;0.95;;;15.00;99.90;;;;;;4978985;28;20847;-74
2023/09/23 04:20:18;;;;;;;2.72;1.10;;;15.00;99.90;;;;;;4984102;28;20214;-74
2023/09/23 04:22:46;;;;;;;1.80;0.98;;;15.00;99.90;;;;;;4982126;28;20210;-74
2023/09/23 04:25:13;;;;;;;1.20;0.90;;;15.00;99.90;;;;;;4984883;28;20769;-74
2023/09/23 04:27:40;;;;;;;0.75;0.70;;;14.90;99.90;;;;;;4983405;28;20170;-74
2023/09/23 04:30:11;;;;;;;1.63;1.08;;;14.90;99.90;;;;;;4985361;28;20190;-74
2023/09/23 04:32:40;;;;;;;0.80;0.70;;;14.90;99.90;;;;;;4983024;28;20202;-74
2023/09/23 04:35:07;;;;;;;1.85;0.90;;;14.90;99.90;;;;;;4981971;28;20240;-74
2023/09/23 04:37:37;;;;;;;2.58;1.50;;;14.80;99.90;;;;;;4983399;28;20727;-75
2023/09/23 04:40:06;;;;;;;1.95;0.93;;;14.90;99.90;;;;;;4984230;28;20602;-74
2023/09/23 04:42:31;;;;;;;0.75;0.75;;;14.80;99.90;;;;;;4984131;28;20692;-74
2023/09/23 04:44:58;;;;;;;0.70;0.68;;;14.80;99.90;;;;;;4983829;28;20207;-74
2023/09/23 04:47:23;;;;;;;1.35;0.82;;;14.80;99.90;;;;;;4984197;28;20201;-74
2023/09/23 04:49:49;;;;;;;1.17;0.77;;;14.80;99.90;;;;;;4981699;28;20297;-72
2023/09/23 04:52:15;;;;;;;1.25;0.70;;;14.80;99.90;;;;;;4984763;28;20225;-74
2023/09/23 04:54:42;;;;;;;1.25;0.80;;;14.80;99.90;;;;;;4982164;28;20210;-74
2023/09/23 04:57:09;;;;;;;1.10;0.70;;;14.80;99.90;;;;;;4985760;28;20178;-75
2023/09/23 04:59:34;;;;;;;0.93;0.70;;;14.80;99.90;;;;;;4982037;28;20214;-75
2023/09/23 05:02:00;;;;;;;1.35;0.80;;;14.70;99.90;;;;;;4983588;28;20289;-74
2023/09/23 05:04:26;;;;;;;1.45;0.90;;;14.70;99.90;;;;;;4981852;28;20748;-74
2023/09/23 05:06:52;;;;;;;3.40;0.80;;;14.70;99.90;;;;;;4984503;28;20537;-74
2023/09/23 05:09:17;;;;;;;0.68;0.65;;;14.60;99.90;;;;;;4983537;28;20172;-74
2023/09/23 05:11:43;;;;;;;1.33;1.00;;;14.70;99.90;;;;;;4983490;28;20677;-74
2023/09/23 05:14:08;;;;;;;1.80;0.95;;;14.70;99.90;;;;;;4983241;28;20245;-74
2023/09/23 05:16:34;;;;;;;1.75;0.60;;;14.80;99.90;;;;;;4982834;28;20294;-74
2023/09/23 05:18:59;;;;;;;1.10;0.70;;;14.80;99.90;;;;;;4981170;28;20566;-74
2023/09/23 05:21:25;;;;;;;0.80;0.50;;;14.70;99.90;;;;;;4984511;28;20181;-74
2023/09/23 05:23:51;;;;;;;0.95;0.70;;;14.70;99.90;;;;;;4980612;28;20297;-73
2023/09/23 05:26:19;;;;;;;0.80;0.60;;;14.70;99.90;;;;;;4983852;28;20206;-74
2023/09/23 05:28:44;;;;;;;2.58;1.10;;;14.70;99.90;;;;;;4980073;28;20256;-74
2023/09/23 05:31:13;;;;;;;2.00;0.90;;;14.80;99.90;;;;;;4980832;28;20712;-74
2023/09/23 05:33:41;;;;;;;1.05;0.70;;;14.70;99.90;;;;;;4977932;28;20225;-74
2023/09/23 05:36:06;;;;;;;1.67;0.70;;;14.80;99.90;;;;;;5034777;23;20228;-75
2023/09/23 05:38:36;;;;;;;1.00;0.90;;;14.90;99.90;;;;;;5028866;28;20756;-75
2023/09/23 05:41:02;;;;;;;1.25;0.75;;;14.80;99.90;;;;;;5031678;28;20204;-76
2023/09/23 05:43:28;;;;;;;1.05;0.60;;;14.90;99.90;;;;;;5028372;28;20257;-75
2023/09/23 05:45:53;;;;;;;1.10;0.68;;;15.10;99.90;;;;;;5031196;28;20297;-75
2023/09/23 05:48:20;;;;;;;0.55;0.55;;;15.20;99.90;;;;;;5038277;28;20180;-75
2023/09/23 05:50:46;;;;;;;1.00;0.70;;;15.60;99.90;;;;;;5039699;28;20674;-76
2023/09/23 05:53:12;;;;;;;1.48;0.50;;;17.70;99.90;;;;;;5032713;28;20236;-76
2023/09/23 05:55:37;;;;;;;2.35;0.57;;;19.80;99.90;;;;;;5031436;28;20230;-72
2023/09/23 05:58:03;;;;;;;0.60;0.55;;;21.40;99.90;;;;;;5046526;28;20565;-75
2023/09/23 06:00:28;;;;;;;3.53;0.82;;;22.70;99.90;;;;;;5031745;28;20196;-71
2023/09/23 06:02:54;;;;;;;2.53;0.85;;;23.50;99.90;;;;;;5031121;28;20212;-74
2023/09/23 06:05:21;;;;;;;1.15;0.80;;;24.30;99.90;;;;;;5030986;28;20212;-74
2023/09/23 06:07:46;;;;;;;1.08;0.60;;;24.70;99.90;;;;;;5031107;28;20223;-74
2023/09/23 06:10:12;;;;;;;5.15;0.77;;;25.40;99.90;;;;;;5031186;28;20220;-74
2023/09/23 06:12:38;;;;;;;1.38;0.90;;;26.00;99.90;;;;;;5031541;28;20263;-74
2023/09/23 06:15:05;;;;;;;1.08;0.70;;;26.40;99.90;;;;;;5031757;28;20212;-74
2023/09/23 06:17:32;;;;;;;1.40;0.77;;;26.70;99.90;;;;;;5030464;28;20284;-74
2023/09/23 06:19:59;;;;;;;2.08;0.60;;;26.70;99.90;;;;;;5031424;28;20200;-76
2023/09/23 06:22:25;;;;;;;0.95;0.57;;;26.10;99.90;;;;;;5029626;28;20223;-74
2023/09/23 06:24:51;;;;;;;1.17;0.70;;;26.50;99.90;;;;;;5031997;28;20228;-74
2023/09/23 06:27:17;;;;;;;0.80;0.68;;;26.80;99.90;;;;;;5031396;28;20223;-75
2023/09/23 06:29:44;;;;;;;1.10;0.70;;;27.10;99.90;;;;;;5029898;28;20208;-74
2023/09/23 06:32:10;;;;;;;1.58;0.77;;;27.50;99.90;;;;;;5030639;28;20211;-73
2023/09/23 06:34:36;;;;;;;0.80;0.60;;;27.40;99.90;;;;;;5029597;28;20219;-74
2023/09/23 06:37:01;;;;;;;1.10;0.63;;;27.40;99.90;;;;;;5027830;28;20216;-74
2023/09/23 06:39:27;;;;;;;1.15;0.80;;;27.80;99.90;;;;;;5033522;28;20187;-75
2023/09/23 06:41:53;;;;;;;2.78;1.40;;;27.70;99.90;;;;;;5030302;28;20204;-76
2023/09/23 06:44:18;;;;;;;1.35;0.82;;;28.10;99.90;;;;;;5030984;28;20277;-75
2023/09/23 06:46:44;;;;;;;1.20;0.63;;;27.90;99.90;;;;;;5032742;28;20246;-75
2023/09/23 06:49:10;;;;;;;1.40;0.80;;;27.90;99.90;;;;;;5026504;28;20222;-73
2023/09/23 06:51:35;;;;;;;1.00;0.57;;;28.30;99.90;;;;;;5032559;28;20176;-75
2023/09/23 06:54:01;;;;;;;0.98;0.65;;;28.50;99.80;;;;;;5033736;28;20290;-74
2023/09/23 06:56:27;;;;;;;1.92;0.40;;;28.70;99.20;;;;;;5029069;28;20286;-73
2023/09/23 06:58:52;;;;;;;0.95;0.57;;;28.60;98.50;;;;;;5031431;28;20204;-75
2023/09/23 07:01:18;;;;;;;0.95;0.50;;;29.00;97.40;;;;;;5028714;28;20215;-75
2023/09/23 07:03:44;;;;;;;0.77;0.60;;;28.90;97.10;;;;;;5027603;28;20705;-74
2023/09/23 07:06:10;;;;;;;0.77;0.50;;;29.10;96.70;;;;;;5030606;28;20192;-75
2023/09/23 07:08:35;;;;;;;2.08;0.88;;;29.40;95.50;;;;;;5028690;28;20290;-72
2023/09/23 07:11:01;;;;;;;1.60;0.43;;;29.90;93.90;;;;;;5026550;28;20215;-74
2023/09/23 07:13:26;;;;;;;0.60;0.57;;;30.10;93.20;;;;;;5037258;28;20207;-75
2023/09/23 07:15:52;;;;;;;1.10;0.50;;;29.90;92.60;;;;;;5030151;28;20272;-74
2023/09/23 07:18:18;;;;;;;0.77;0.65;;;29.80;91.90;;;;;;5030538;28;20725;-74
2023/09/23 07:20:43;;;;;;;0.60;0.47;;;29.90;92.00;;;;;;5031274;28;20199;-74
2023/09/23 07:23:09;;;;;;;0.70;0.50;;;29.60;91.50;;;;;;5031313;28;20708;-74
2023/09/23 07:25:39;;;;;;;1.83;0.43;;;29.80;91.50;;;;;;5030088;28;20212;-75
2023/09/23 07:28:08;;;;;;;0.80;0.63;;;29.60;91.30;;;;;;5045188;28;20211;-73
2023/09/23 07:30:38;;;;;;;1.10;0.40;;;29.40;91.20;;;;;;5030155;28;20211;-74
2023/09/23 07:33:04;;;;;;;0.40;0.40;;;29.10;90.40;;;;;;5026163;28;20268;-74
2023/09/23 07:35:33;;;;;;;1.75;1.10;;;29.10;91.10;;;;;;5027380;28;20294;-75
2023/09/23 07:37:59;;;;;;;2.30;1.15;;;29.30;91.10;;;;;;5029745;28;20732;-74
2023/09/23 07:40:26;;;;;;;0.95;0.77;;;29.40;90.60;;;;;;5028650;28;20694;-74
2023/09/23 07:42:51;;;;;;;1.30;0.70;;;29.30;90.20;;;;;;5031025;28;20187;-73
2023/09/23 07:45:17;;;;;;;1.23;0.70;;;29.20;90.40;;;;;;5030431;28;20696;-74
2023/09/23 07:47:43;;;;;;;1.15;0.60;;;29.20;90.00;;;;;;5036885;28;20200;-73
2023/09/23 07:50:09;;;;;;;0.95;0.50;;;28.60;90.70;;;;;;5029039;28;20227;-73
2023/09/23 07:52:35;;;;;;;6.55;0.70;;;28.40;90.90;;;;;;5033850;28;20211;-76
2023/09/23 07:55:02;;;;;;;1.25;0.60;;;28.80;90.50;;;;;;5032520;28;20215;-76
2023/09/23 07:57:28;;;;;;;1.50;0.82;;;29.00;89.80;;;;;;5031649;28;20176;-75
2023/09/23 07:59:53;;;;;;;1.85;0.50;;;28.80;89.70;;;;;;5033765;28;20204;-76
2023/09/23 08:02:19;;;;;;;1.45;0.50;;;28.20;89.80;;;;;;5031020;28;20210;-75
2023/09/23 08:04:44;;;;;;;1.02;0.50;;;27.30;91.10;;;;;;5032684;28;20648;-75
2023/09/23 08:07:11;;;;;;;0.35;0.35;;;25.70;93.10;;;;;;5031919;28;20211;-75
2023/09/23 08:09:37;;;;;;;0.98;0.47;;;24.60;95.20;;;;;;5033979;28;20180;-75
2023/09/23 08:12:03;;;;;;;3.67;0.68;;;24.40;96.90;;;;;;5023578;28;20543;-76
2023/09/23 08:14:29;;;;;;;1.45;0.43;;;24.90;96.40;;;;;;5033810;28;20212;-75
2023/09/23 08:16:55;;;;;;;0.98;0.40;;;25.70;96.20;;;;;;5034564;28;20208;-75
2023/09/23 08:19:23;;;;;;;0.73;0.70;;;26.10;95.20;;;;;;5033764;28;20204;-75
2023/09/23 08:21:48;;;;;;;0.55;0.43;;;25.70;95.40;;;;;;5033267;28;20200;-74
2023/09/23 08:24:14;;;;;;;0.63;0.60;;;25.40;95.90;;;;;;5037891;28;20224;-75
2023/09/23 08:26:40;;;;;;;0.55;0.50;;;24.50;96.70;;;;;;5032264;28;20708;-75
2023/09/23 08:29:05;;;;;;;1.08;0.50;;;23.60;98.40;;;;;;5030074;28;20258;-75
2023/09/23 08:31:31;;;;;;;0.40;0.40;;;22.40;99.90;;;;;;5028806;28;20222;-75
2023/09/23 08:33:58;;;;;;;1.98;0.50;;;21.90;99.90;;;;;;5033091;28;20223;-75
2023/09/23 08:36:24;;;;;;;2.80;0.77;;;21.70;99.90;;;;;;5033851;28;20211;-73
2023/09/23 08:38:49;;;;;;;1.20;0.57;;;21.80;99.90;;;;;;5031726;28;20208;-73
2023/09/23 08:41:19;;;;;;;0.80;0.50;;;21.90;99.90;;;;;;5031744;28;20208;-72
2023/09/23 08:43:45;;;;;;;2.72;1.20;;;22.50;99.90;;;;;;5033300;28;20234;-75
2023/09/23 08:46:12;;;;;;;2.85;0.95;;;22.80;99.90;;;;;;5035791;28;20235;-75
2023/09/23 08:48:38;;;;;;;3.00;0.65;;;22.60;99.90;;;;;;5033049;28;20181;-75
2023/09/23 08:51:08;;;;;;;0.95;0.63;;;22.30;99.90;;;;;;5032105;28;20593;-75
2023/09/23 08:53:38;;;;;;;0.88;0.60;;;22.30;99.90;;;;;;5031929;28;20775;-75
2023/09/23 08:56:05;;;;;;;1.75;0.75;;;21.70;99.90;;;;;;5031229;28;20227;-76
2023/09/23 08:58:31;;;;;;;0.60;0.50;;;21.30;99.90;;;;;;5032660;28;20208;-73
2023/09/23 09:00:57;;;;;;;0.77;0.55;;;21.40;99.90;;;;;;5038265;28;20215;-75
2023/09/23 09:03:22;;;;;;;0.90;0.90;;;21.20;99.90;;;;;;5030747;28;20198;-75
2023/09/23 09:05:48;;;;;;;1.05;0.80;;;21.00;99.90;;;;;;5031072;28;20632;-75
2023/09/23 09:08:14;;;;;;;1.92;0.80;;;20.70;99.90;;;;;;5027622;28;20687;-74
2023/09/23 09:10:40;;;;;;;3.28;2.00;;;20.40;99.90;;;;;;5029789;28;20678;-75
2023/09/23 09:13:07;;;;;;;2.15;1.58;;;20.40;99.90;;;;;;5031937;28;20207;-73
2023/09/23 09:15:37;;;;;;;2.97;1.20;;;20.60;99.90;;;;;;5032621;28;20224;-75
2023/09/23 09:18:03;;;;;;;1.73;1.02;;;20.80;99.90;;;;;;5032687;28;20178;-77
2023/09/23 09:20:29;;;;;;;1.88;1.20;;;20.60;99.90;;;;;;5029538;28;20254;-75
2023/09/23 09:22:55;;;;;;;1.45;0.70;;;20.90;99.90;;;;;;5041285;28;20204;-75
2023/09/23 09:25:21;;;;;;;2.15;0.60;;;21.40;99.90;;;;;;5031455;28;20634;-75
2023/09/23 09:27:48;;;;;;;1.63;1.13;;;21.20;99.90;;;;;;5031798;28;20192;-74
2023/09/23 09:30:14;;;;;;;1.35;0.93;;;21.20;99.90;;;;;;5032414;28;20176;-75
2023/09/23 09:32:44;;;;;;;1.85;1.02;;;21.10;99.90;;;;;;5032712;28;20295;-75
2023/09/23 09:35:17;;;;;;;1.73;0.90;;;21.00;99.90;;;;;;5024728;28;20212;-76
2023/09/23 09:37:46;;;;;;;0.63;0.60;;;20.80;99.90;;;;;;5034632;28;20250;-76
2023/09/23 09:40:22;;;;;;;1.30;1.00;;;20.70;99.90;;;;;;5036167;28;20276;-76
2023/09/23 09:42:54;;;;;;;0.75;0.70;;;21.00;99.90;;;;;;5027886;28;20255;-76
2023/09/23 09:45:21;;;;;;;0.98;0.88;;;21.00;99.90;;;;;;5031504;28;20239;-74
2023/09/23 09:47:48;;;;;;;1.50;1.00;;;21.00;99.90;;;;;;5034992;28;20583;-75
2023/09/23 09:50:15;;;;;;;3.53;1.17;;;20.90;99.90;;;;;;5032106;28;20238;-75
2023/09/23 09:52:44;;;;;;;0.75;0.68;;;20.80;99.90;;;;;;5034749;28;20287;-75
2023/09/23 09:55:15;;;;;;;1.02;0.90;;;20.80;99.90;;;;;;5033901;28;20216;-75
2023/09/23 09:57:41;;;;;;;1.15;0.95;;;20.50;99.90;;;;;;5030435;28;20181;-75
2023/09/23 10:00:22;;;;;;;2.95;1.02;;;20.60;99.90;;;;;;5033727;28;20238;-75
2023/09/23 10:02:48;;;;;;;2.25;0.90;;;20.50;99.90;;;;;;5033749;28;20756;-75
2023/09/23 10:05:18;;;;;;;2.50;0.95;;;20.00;99.90;;;;;;5034277;28;20262;-74
2023/09/23 10:07:54;;;;;;;3.35;1.55;;;20.00;99.90;;;;;;5032267;28;20211;-75
2023/09/23 10:10:47;;;;;;;1.38;1.23;;;20.10;99.90;;;;;;5022569;28;20313;-75
2023/09/23 10:13:23;;;;;;;1.10;0.95;;;20.00;99.90;;;;;;5022833;28;20209;-75
2023/09/23 10:16:02;;;;;;;5.03;1.20;;;19.90;99.90;;;;;;5024439;28;20389;-72
2023/09/23 10:18:35;;;;;;;1.98;1.25;;;19.80;99.90;;;;;;5029791;28;20665;-75
2023/09/23 10:21:02;;;;;;;1.73;1.42;;;19.90;99.90;;;;;;5031416;28;20223;-73
2023/09/23 10:23:35;;;;;;;1.80;1.08;;;20.20;99.90;;;;;;5032634;28;20201;-75
2023/09/23 10:26:18;;;;;;;2.78;1.05;;;20.50;99.90;;;;;;5032704;28;20216;-75
2023/09/23 10:28:57;;;;;;;1.25;0.95;;;20.70;99.90;;;;;;5028327;28;20243;-75
2023/09/23 10:31:28;;;;;;;1.42;1.08;;;20.60;99.90;;;;;;5033594;28;20199;-76
2023/09/23 10:33:55;;;;;;;2.00;1.33;;;20.40;99.90;;;;;;5030019;28;20255;-75
2023/09/23 10:36:22;;;;;;;1.30;1.17;;;20.10;99.90;;;;;;5032821;28;20643;-75
2023/09/23 10:38:48;;;;;;;2.88;0.90;;;19.90;99.90;;;;;;5032202;28;20287;-75
2023/09/23 10:41:14;;;;;;;3.03;1.08;;;19.70;99.90;;;;;;5029875;28;20247;-73
2023/09/23 10:43:40;;;;;;;1.13;0.85;;;20.00;99.90;;;;;;5030714;28;20235;-75
2023/09/23 10:46:06;;;;;;;1.20;0.90;;;20.00;99.90;;;;;;5039754;28;20714;-75
2023/09/23 10:48:33;;;;;;;1.98;1.20;;;19.90;99.90;;;;;;5031141;28;20164;-75
2023/09/23 10:51:00;;;;;;;2.05;1.50;;;19.50;99.90;;;;;;5031082;28;20253;-76
2023/09/23 10:53:29;;;;;;;1.45;1.27;;;19.60;99.90;;;;;;5046016;28;20298;-74
2023/09/23 10:55:56;;;;;;;1.70;1.20;;;19.70;99.90;;;;;;5030399;28;20224;-71
2023/09/23 10:58:22;;;;;;;2.55;0.90;;;19.90;99.90;;;;;;5030785;28;20208;-75
2023/09/23 11:00:48;;;;;;;1.92;1.40;;;20.10;99.90;;;;;;5030824;28;20191;-76
2023/09/23 11:03:19;;;;;;;1.85;1.52;;;20.50;99.90;;;;;;5029714;28;20249;-76
2023/09/23 11:05:46;;;;;;;1.17;0.90;;;20.80;99.90;;;;;;5025317;28;20686;-74
2023/09/23 11:08:14;;;;;;;2.08;1.10;;;21.20;99.90;;;;;;5032417;28;20591;-76
2023/09/23 11:10:44;;;;;;;1.77;0.95;;;21.20;99.90;;;;;;5031153;28;20690;-76
2023/09/23 11:13:14;;;;;;;1.48;1.00;;;21.00;99.90;;;;;;5030003;28;20768;-74
2023/09/23 11:15:41;;;;;;;1.08;0.80;;;20.50;99.90;;;;;;5029284;28;20204;-75
2023/09/23 11:18:11;;;;;;;1.23;0.75;;;20.50;99.90;;;;;;5029315;28;20710;-75
2023/09/23 11:20:42;;;;;;;2.05;1.27;;;20.40;99.90;;;;;;5030296;28;20635;-76
2023/09/23 11:23:10;;;;;;;2.10;1.60;;;20.30;99.90;;;;;;5030072;28;20250;-75
2023/09/23 11:25:42;;;;;;;1.83;1.33;;;20.40;99.90;;;;;;5030564;28;20213;-75
2023/09/23 11:28:21;;;;;;;3.30;2.28;;;20.50;99.90;;;;;;5030125;28;20260;-75
2023/09/23 11:30:48;;;;;;;1.92;1.13;;;20.60;99.90;;;;;;5026719;28;20258;-75
2023/09/23 11:33:14;;;;;;;1.02;0.80;;;21.00;99.90;;;;;;5025847;28;20678;-76
2023/09/23 11:35:41;;;;;;;1.38;0.93;;;21.30;99.90;;;;;;5041515;23;20539;-75
2023/09/23 11:38:07;;;;;;;2.05;0.93;;;21.10;99.90;;;;;;5019235;28;20641;-75
2023/09/23 11:40:34;;;;;;;0.88;0.63;;;21.20;99.90;;;;;;5021187;28;20697;-75
2023/09/23 11:43:00;;;;;;;0.85;0.60;;;21.10;99.90;;;;;;5026806;28;20295;-72
2023/09/23 11:45:25;;;;;;;0.85;0.70;;;20.90;99.90;;;;;;5028578;28;20200;-74
2023/09/23 11:47:51;;;;;;;0.63;0.50;;;20.60;99.90;;;;;;5020489;28;20243;-75
2023/09/23 11:50:17;;;;;;;0.68;0.63;;;20.40;99.90;;;;;;5017506;28;20219;-75
2023/09/23 11:52:43;;;;;;;1.25;0.80;;;20.10;99.90;;;;;;5020278;28;20216;-75
2023/09/23 11:55:12;;;;;;;2.33;1.13;;;20.00;99.90;;;;;;5019919;28;20227;-75
2023/09/23 11:57:41;;;;;;;1.25;0.90;;;19.90;99.90;;;;;;5021322;28;20203;-75
2023/09/23 12:00:09;;;;;;;7.35;4.05;;;19.80;99.90;;;;;;5025113;28;20223;-75
2023/09/23 12:02:38;;;;;;;2.22;1.20;;;19.90;99.90;;;;;;5019617;28;20333;-75
2023/09/23 12:05:06;;;;;;;1.42;1.23;;;19.90;99.90;;;;;;5017212;28;20208;-75
2023/09/23 12:07:32;;;;;;;4.20;2.25;;;19.90;99.90;;;;;;5015127;28;20205;-75
2023/09/23 12:09:58;;;;;;;1.88;0.85;;;19.90;99.90;;;;;;5018819;28;20212;-74
2023/09/23 12:12:24;;;;;;;2.80;0.93;;;19.80;99.90;;;;;;5018485;28;20566;-75
2023/09/23 12:14:50;;;;;;;1.55;0.73;;;19.90;99.90;;;;;;5013838;28;20304;-73
2023/09/23 12:17:16;;;;;;;0.98;0.68;;;20.10;99.90;;;;;;5017886;28;20759;-75
2023/09/23 12:19:44;;;;;;;0.52;0.52;;;20.20;99.90;;;;;;5021176;28;20334;-74
2023/09/23 12:22:15;;;;;;;2.92;0.73;;;20.20;99.90;;;;;;5015002;28;20221;-74
2023/09/23 12:24:42;;;;;;;1.02;0.63;;;20.30;99.90;;;;;;5020378;28;20203;-74
2023/09/23 12:27:08;;;;;;;0.88;0.65;;;20.40;99.90;;;;;;5018761;28;20201;-74
2023/09/23 12:29:33;;;;;;;0.63;0.60;;;20.20;99.90;;;;;;5020077;28;20208;-73
2023/09/23 12:32:00;;;;;;;2.35;1.00;;;20.00;99.90;;;;;;5017798;28;20598;-74
2023/09/23 12:34:26;;;;;;;0.85;0.57;;;20.00;99.90;;;;;;5022167;28;20584;-73
2023/09/23 12:36:51;;;;;;;1.05;0.50;;;20.00;99.90;;;;;;5023368;28;25562;-73
2023/09/23 12:39:17;;;;;;;0.65;0.50;;;19.90;99.90;;;;;;5029769;28;20184;-74
2023/09/23 12:41:43;;;;;;;1.02;0.60;;;19.70;99.90;;;;;;5020775;28;20284;-74
2023/09/23 12:44:09;;;;;;;1.00;0.77;;;19.60;99.90;;;;;;5020011;28;20205;-74
2023/09/23 12:46:35;;;;;;;1.67;0.43;;;19.70;99.90;;;;;;5017475;28;20205;-74
2023/09/23 12:49:00;;;;;;;1.25;0.90;;;19.70;99.90;;;;;;5024663;28;20242;-73